createdAt,value
2023-01-26T00:01:22.025Z,-0.60
2023-01-26T00:03:48.904Z,-0.60
2023-01-26T00:06:18.225Z,-0.50
2023-01-26T00:08:50.554Z,-0.50
2023-01-26T00:11:19.768Z,-0.50
2023-01-26T00:13:49.366Z,-0.50
2023-01-26T00:16:16.246Z,-0.50
2023-01-26T00:18:43.809Z,-0.60
2023-01-26T00:21:16.524Z,0.90
2023-01-26T00:23:43.448Z,-0.50
2023-01-26T00:26:14.004Z,-0.40
2023-01-26T00:28:40.849Z,-0.40
2023-01-26T00:31:11.877Z,-0.30
2023-01-26T00:33:38.932Z,-0.40
2023-01-26T00:36:06.462Z,-0.40
2023-01-26T00:38:33.784Z,-0.40
2023-01-26T00:41:00.614Z,-0.50
2023-01-26T00:43:27.466Z,-0.50
2023-01-26T00:45:54.344Z,-0.50
2023-01-26T00:48:23.480Z,-0.50
2023-01-26T00:50:52.316Z,-0.50
2023-01-26T00:53:19.257Z,-0.50
2023-01-26T00:55:46.177Z,-0.50
2023-01-26T00:58:13.137Z,-0.60
2023-01-26T01:00:40.022Z,-0.50
2023-01-26T01:03:07.375Z,-0.40
2023-01-26T01:05:34.797Z,-0.50
2023-01-26T01:08:01.987Z,-0.50
2023-01-26T01:10:29.050Z,-0.60
2023-01-26T01:12:56.680Z,-0.40
2023-01-26T01:15:24.410Z,-0.50
2023-01-26T01:17:51.643Z,-0.60
2023-01-26T01:20:18.642Z,-0.60
2023-01-26T01:22:45.570Z,-0.60
2023-01-26T01:25:12.832Z,-0.60
2023-01-26T01:27:39.757Z,-0.60
2023-01-26T01:30:08.314Z,-0.70
2023-01-26T01:32:41.967Z,-0.70
2023-01-26T01:35:09.162Z,-0.70
2023-01-26T01:37:36.809Z,-0.60
2023-01-26T01:40:04.156Z,-0.60
2023-01-26T01:42:33.166Z,-0.60
2023-01-26T01:45:21.571Z,-0.60
2023-01-26T01:47:48.426Z,-0.60
2023-01-26T01:50:17.170Z,-0.60
2023-01-26T01:52:44.478Z,-0.60
2023-01-26T01:55:13.117Z,-0.60
2023-01-26T01:57:51.745Z,-0.10
2023-01-26T02:00:21.511Z,-0.50
2023-01-26T02:03:16.723Z,-0.50
2023-01-26T02:05:56.197Z,-0.60
2023-01-26T02:08:38.483Z,-0.60
2023-01-26T02:11:14.515Z,-0.70
2023-01-26T02:13:43.645Z,-0.80
2023-01-26T02:16:10.740Z,-0.70
2023-01-26T02:18:38.126Z,-0.70
2023-01-26T02:21:07.500Z,-0.50
2023-01-26T02:23:53.223Z,-0.40
2023-01-26T02:26:23.226Z,-0.40
2023-01-26T02:28:50.601Z,-0.30
2023-01-26T02:31:18.650Z,-0.40
2023-01-26T02:33:45.871Z,-0.50
2023-01-26T02:36:27.495Z,-0.60
2023-01-26T02:39:03.423Z,-0.50
2023-01-26T02:41:56.675Z,-0.30
2023-01-26T02:44:24.248Z,-0.50
2023-01-26T02:46:51.135Z,-0.60
2023-01-26T02:49:36.652Z,-0.60
2023-01-26T02:52:05.801Z,-0.50
2023-01-26T02:54:51.170Z,-0.50
2023-01-26T02:57:18.024Z,-0.50
2023-01-26T02:59:44.911Z,-0.50
2023-01-26T03:02:12.099Z,-0.50
2023-01-26T03:04:38.908Z,-0.50
2023-01-26T03:07:05.731Z,-0.50
2023-01-26T03:09:32.577Z,-0.60
2023-01-26T03:11:59.806Z,-0.60
2023-01-26T03:14:26.647Z,-0.50
2023-01-26T03:16:53.511Z,-0.40
2023-01-26T03:19:38.890Z,-0.40
2023-01-26T03:22:24.272Z,-0.50
2023-01-26T03:25:09.666Z,-0.50
2023-01-26T03:27:46.152Z,-0.40
2023-01-26T03:30:14.984Z,-0.50
2023-01-26T03:32:42.172Z,-0.50
2023-01-26T03:35:15.448Z,-0.40
2023-01-26T03:37:44.548Z,-0.40
2023-01-26T03:40:31.624Z,-0.40
2023-01-26T03:43:17.273Z,-0.40
2023-01-26T03:46:02.693Z,-0.30
2023-01-26T03:48:47.906Z,-0.30
2023-01-26T03:51:33.292Z,-0.30
2023-01-26T03:54:18.802Z,-0.30
2023-01-26T03:56:45.708Z,-0.20
2023-01-26T03:59:15.296Z,-0.10
2023-01-26T04:02:05.944Z,-0.20
2023-01-26T04:04:51.430Z,-0.30
2023-01-26T04:07:37.698Z,-0.30
2023-01-26T04:10:04.851Z,-0.30
2023-01-26T04:12:31.651Z,-0.30
2023-01-26T04:15:16.932Z,-0.30
2023-01-26T04:18:02.286Z,-0.20
2023-01-26T04:20:47.826Z,-0.20
2023-01-26T04:23:21.345Z,-0.20
2023-01-26T04:25:48.748Z,-0.10
2023-01-26T04:28:16.037Z,-0.20
2023-01-26T04:30:43.132Z,-0.20
2023-01-26T04:33:10.823Z,-0.30
2023-01-26T04:35:37.639Z,-0.10
2023-01-26T04:38:04.505Z,-0.20
2023-01-26T04:40:31.349Z,-0.20
2023-01-26T04:42:58.253Z,-0.10
2023-01-26T04:45:25.128Z,-0.10
2023-01-26T04:47:52.001Z,-0.10
2023-01-26T04:50:18.869Z,-0.10
2023-01-26T04:52:45.759Z,0.00
2023-01-26T04:55:12.630Z,0.00
2023-01-26T04:57:39.417Z,0.10
2023-01-26T05:00:07.044Z,-0.10
2023-01-26T05:02:33.930Z,-0.20
2023-01-26T05:05:00.724Z,-0.20
2023-01-26T05:07:27.839Z,-0.20
2023-01-26T05:09:55.713Z,-0.20
2023-01-26T05:12:34.499Z,-0.20
2023-01-26T05:15:01.551Z,-0.10
2023-01-26T05:17:28.440Z,-0.10
2023-01-26T05:19:55.273Z,-0.10
2023-01-26T05:22:22.093Z,0.00
2023-01-26T05:24:48.932Z,0.00
2023-01-26T05:27:21.674Z,0.00
2023-01-26T05:29:49.969Z,-0.10
2023-01-26T05:32:17.809Z,-0.10
2023-01-26T05:34:44.807Z,-0.10
2023-01-26T05:37:14.543Z,0.10
2023-01-26T05:39:41.791Z,0.10
2023-01-26T05:42:08.649Z,-0.10
2023-01-26T05:44:35.503Z,1.30
2023-01-26T05:47:02.344Z,-0.10
2023-01-26T05:49:29.224Z,1.40
2023-01-26T05:51:56.235Z,1.10
2023-01-26T05:54:23.222Z,0.20
2023-01-26T05:56:50.376Z,0.20
2023-01-26T05:59:17.213Z,0.10
2023-01-26T06:01:44.114Z,0.10
2023-01-26T06:04:11.136Z,0.20
2023-01-26T06:06:37.993Z,0.10
2023-01-26T06:09:04.836Z,0.00
2023-01-26T06:11:34.970Z,0.10
2023-01-26T06:14:01.984Z,0.00
2023-01-26T06:16:29.106Z,0.00
2023-01-26T06:18:56.129Z,0.10
2023-01-26T06:21:22.975Z,0.10
2023-01-26T06:23:49.881Z,0.10
2023-01-26T06:26:16.812Z,0.10
2023-01-26T06:28:43.687Z,1.20
2023-01-26T06:31:14.397Z,0.10
2023-01-26T06:33:41.364Z,0.10
2023-01-26T06:36:11.179Z,0.20
2023-01-26T06:38:38.973Z,0.20
2023-01-26T06:41:07.778Z,0.20
2023-01-26T06:43:35.603Z,0.20
2023-01-26T06:46:03.949Z,1.00
2023-01-26T06:48:33.432Z,0.10
2023-01-26T06:51:15.537Z,0.10
2023-01-26T06:53:53.480Z,0.10
2023-01-26T06:56:21.148Z,0.10
2023-01-26T06:58:47.943Z,0.10
2023-01-26T07:01:24.833Z,0.10
2023-01-26T07:03:53.186Z,0.10
2023-01-26T07:06:20.212Z,1.00
2023-01-26T07:08:47.447Z,0.00
2023-01-26T07:11:15.096Z,0.10
2023-01-26T07:13:41.955Z,0.50
2023-01-26T07:16:14.185Z,0.20
2023-01-26T07:18:41.420Z,0.50
2023-01-26T07:21:12.142Z,0.20
2023-01-26T07:23:39.106Z,0.30
2023-01-26T07:26:07.379Z,0.30
2023-01-26T07:28:34.358Z,1.80
2023-01-26T07:31:02.311Z,0.20
2023-01-26T07:33:29.642Z,0.20
2023-01-26T07:35:57.301Z,0.20
2023-01-26T07:38:25.089Z,0.20
2023-01-26T07:40:52.250Z,0.20
2023-01-26T07:43:19.311Z,0.30
2023-01-26T07:45:53.639Z,0.30
2023-01-26T07:48:23.504Z,0.60
2023-01-26T07:50:51.032Z,0.20
2023-01-26T07:53:23.023Z,0.20
2023-01-26T07:55:50.088Z,0.30
2023-01-26T07:58:18.679Z,0.30
2023-01-26T08:00:47.245Z,1.10
2023-01-26T08:03:14.484Z,0.20
2023-01-26T08:05:43.192Z,0.60
2023-01-26T08:08:10.341Z,0.30
2023-01-26T08:10:37.355Z,0.30
2023-01-26T08:13:04.321Z,0.40
2023-01-26T08:15:31.196Z,0.50
2023-01-26T08:17:58.080Z,0.60
2023-01-26T08:20:24.911Z,0.70
2023-01-26T08:22:51.778Z,0.70
2023-01-26T08:25:18.637Z,0.80
2023-01-26T08:27:45.587Z,0.80
2023-01-26T08:30:13.914Z,0.80
2023-01-26T08:32:41.032Z,0.70
2023-01-26T08:35:08.208Z,0.70
2023-01-26T08:37:35.083Z,0.70
2023-01-26T08:40:02.155Z,2.40
2023-01-26T08:42:29.062Z,1.10
2023-01-26T08:44:55.992Z,2.00
2023-01-26T08:47:22.883Z,1.30
2023-01-26T08:49:49.706Z,1.40
2023-01-26T08:52:16.818Z,1.60
2023-01-26T08:54:43.664Z,1.70
2023-01-26T08:57:12.231Z,1.80
2023-01-26T08:59:39.391Z,2.20
2023-01-26T09:02:06.414Z,2.20
2023-01-26T09:04:33.770Z,2.40
2023-01-26T09:07:00.692Z,2.60
2023-01-26T09:09:27.505Z,2.70
2023-01-26T09:11:57.864Z,2.90
2023-01-26T09:14:24.671Z,2.90
2023-01-26T09:16:51.600Z,3.00
2023-01-26T09:19:19.617Z,3.10
2023-01-26T09:21:46.523Z,3.20
2023-01-26T09:24:13.378Z,3.20
2023-01-26T09:26:40.216Z,3.30
2023-01-26T09:29:07.046Z,3.20
2023-01-26T09:31:34.082Z,3.10
2023-01-26T09:34:01.042Z,3.20
2023-01-26T09:36:27.936Z,3.40
2023-01-26T09:38:54.825Z,3.10
2023-01-26T09:42:06.120Z,3.10
2023-01-26T09:44:43.903Z,3.10
2023-01-26T09:47:49.745Z,3.00
2023-01-26T09:50:26.200Z,3.00
2023-01-26T09:52:56.079Z,2.90
2023-01-26T09:55:24.777Z,2.70
2023-01-26T09:58:06.036Z,2.70
2023-01-26T10:00:39.049Z,2.90
2023-01-26T10:03:23.814Z,3.10
2023-01-26T10:06:18.336Z,3.30
2023-01-26T10:08:45.385Z,3.50
2023-01-26T10:11:24.694Z,3.80
2023-01-26T10:14:04.455Z,3.80
2023-01-26T10:16:34.250Z,4.00
2023-01-26T10:19:20.531Z,4.00
2023-01-26T10:21:50.686Z,4.10
2023-01-26T10:24:23.034Z,4.30
2023-01-26T10:26:53.022Z,4.30
2023-01-26T10:29:20.677Z,4.50
2023-01-26T10:31:50.646Z,4.50
2023-01-26T10:34:24.789Z,4.60
2023-01-26T10:37:00.455Z,4.60
2023-01-26T10:39:27.317Z,4.70
2023-01-26T10:41:59.929Z,4.70
2023-01-26T10:44:31.952Z,4.60
2023-01-26T10:47:19.792Z,4.70
2023-01-26T10:49:47.083Z,4.70
2023-01-26T10:52:27.854Z,4.70
2023-01-26T10:55:20.692Z,4.60
2023-01-26T10:57:47.565Z,4.70
2023-01-26T11:00:29.171Z,4.90
2023-01-26T11:03:15.270Z,5.20
2023-01-26T11:05:43.568Z,6.10
2023-01-26T11:08:32.805Z,6.90
2023-01-26T11:10:59.777Z,7.70
2023-01-26T11:13:26.843Z,8.40
2023-01-26T11:16:24.266Z,8.90
2023-01-26T11:19:06.737Z,9.10
2023-01-26T11:21:58.587Z,9.30
2023-01-26T11:24:51.567Z,9.40
2023-01-26T11:27:51.591Z,9.40
2023-01-26T11:30:30.432Z,9.40
2023-01-26T11:33:33.992Z,9.40
2023-01-26T11:36:37.676Z,9.40
2023-01-26T11:39:19.787Z,9.20
2023-01-26T11:42:06.153Z,9.20
2023-01-26T11:44:51.462Z,9.30
2023-01-26T11:47:18.266Z,9.30
2023-01-26T11:50:06.096Z,9.40
2023-01-26T11:52:32.859Z,9.50
2023-01-26T11:55:18.413Z,9.50
2023-01-26T11:58:12.515Z,9.60
2023-01-26T12:01:00.921Z,9.60
2023-01-26T12:03:47.804Z,9.40
2023-01-26T12:06:18.873Z,9.50
2023-01-26T12:08:51.966Z,9.50
2023-01-26T12:11:49.318Z,9.30
2023-01-26T12:14:23.440Z,9.20
2023-01-26T12:17:17.628Z,9.30
2023-01-26T12:19:53.475Z,9.40
2023-01-26T12:22:24.964Z,9.70
2023-01-26T12:25:18.544Z,9.70
2023-01-26T12:28:02.460Z,9.60
2023-01-26T12:30:38.457Z,9.20
2023-01-26T12:33:05.451Z,8.90
2023-01-26T12:36:02.797Z,8.70
2023-01-26T12:39:11.942Z,8.50
2023-01-26T12:42:00.889Z,8.00
2023-01-26T12:44:39.290Z,7.60
2023-01-26T12:47:24.823Z,7.50
2023-01-26T12:49:54.502Z,7.40
2023-01-26T12:52:46.050Z,7.30
2023-01-26T12:55:29.312Z,7.10
2023-01-26T12:58:03.423Z,7.20
2023-01-26T13:00:36.517Z,7.30
2023-01-26T13:03:21.044Z,7.30
2023-01-26T13:06:19.697Z,7.40
2023-01-26T13:09:04.522Z,7.70
2023-01-26T13:11:42.339Z,7.90
2023-01-26T13:14:28.250Z,7.70
2023-01-26T13:16:55.774Z,7.40
2023-01-26T13:19:44.079Z,7.30
2023-01-26T13:22:26.111Z,7.10
2023-01-26T13:24:55.933Z,7.00
2023-01-26T13:27:39.188Z,6.90
2023-01-26T13:30:27.494Z,6.80
2023-01-26T13:33:25.172Z,6.80
2023-01-26T13:35:55.201Z,6.80
2023-01-26T13:38:34.428Z,6.90
2023-01-26T13:41:06.345Z,7.60
2023-01-26T13:43:40.186Z,8.50
2023-01-26T13:46:30.655Z,9.30
2023-01-26T13:48:57.693Z,10.00
2023-01-26T13:51:29.065Z,10.50
2023-01-26T13:54:07.811Z,10.90
2023-01-26T13:56:37.326Z,11.30
2023-01-26T13:59:12.637Z,11.60
2023-01-26T14:01:47.074Z,11.80
2023-01-26T14:04:21.575Z,11.20
2023-01-26T14:07:06.752Z,10.80
2023-01-26T14:09:50.524Z,10.90
2023-01-26T14:12:25.269Z,10.50
2023-01-26T14:14:59.579Z,9.90
2023-01-26T14:17:36.756Z,9.30
2023-01-26T14:20:33.124Z,8.80
2023-01-26T14:23:13.794Z,8.40
2023-01-26T14:26:02.590Z,8.00
2023-01-26T14:28:34.637Z,7.80
2023-01-26T14:31:20.180Z,7.50
2023-01-26T14:33:48.958Z,7.50
2023-01-26T14:36:18.473Z,7.40
2023-01-26T14:38:47.817Z,7.30
2023-01-26T14:41:23.397Z,7.30
2023-01-26T14:43:55.371Z,7.20
2023-01-26T14:46:29.384Z,7.20
2023-01-26T14:49:11.855Z,7.10
2023-01-26T14:51:39.253Z,7.00
2023-01-26T14:54:32.305Z,6.90
2023-01-26T14:57:00.398Z,6.90
2023-01-26T14:59:40.349Z,6.90
2023-01-26T15:02:37.328Z,6.90
2023-01-26T15:05:18.968Z,6.80
2023-01-26T15:08:00.354Z,6.80
2023-01-26T15:10:43.311Z,6.70
2023-01-26T15:13:16.264Z,6.80
2023-01-26T15:15:49.034Z,6.70
2023-01-26T15:18:19.299Z,6.70
2023-01-26T15:21:12.377Z,6.70
2023-01-26T15:23:53.288Z,6.80
2023-01-26T15:26:31.600Z,6.80
2023-01-26T15:29:04.891Z,6.80
2023-01-26T15:31:41.685Z,6.80
2023-01-26T15:34:36.707Z,6.70
2023-01-26T15:37:26.463Z,6.70
2023-01-26T15:39:53.264Z,6.70
2023-01-26T15:42:27.812Z,6.70
2023-01-26T15:44:55.107Z,6.70
2023-01-26T15:47:21.999Z,6.60
2023-01-26T15:49:48.861Z,6.60
2023-01-26T15:52:17.595Z,6.60
2023-01-26T15:54:45.248Z,6.60
2023-01-26T15:57:13.354Z,6.60
2023-01-26T15:59:40.799Z,6.60
2023-01-26T16:02:20.016Z,6.50
2023-01-26T16:04:47.602Z,6.50
2023-01-26T16:07:16.389Z,6.60
2023-01-26T16:09:44.095Z,6.50
2023-01-26T16:12:31.177Z,6.50
2023-01-26T16:14:59.810Z,6.50
2023-01-26T16:17:26.690Z,6.50
2023-01-26T16:19:53.705Z,6.50
2023-01-26T16:22:20.704Z,6.50
2023-01-26T16:24:47.517Z,6.50
2023-01-26T16:27:14.402Z,6.60
2023-01-26T16:29:41.254Z,6.50
2023-01-26T16:32:28.589Z,6.50
2023-01-26T16:34:55.528Z,6.60
2023-01-26T16:37:22.433Z,6.50
2023-01-26T16:39:49.312Z,6.50
2023-01-26T16:42:19.185Z,6.50
2023-01-26T16:44:46.361Z,6.40
2023-01-26T16:47:13.315Z,6.40
2023-01-26T16:49:40.141Z,6.40
2023-01-26T16:52:08.943Z,6.40
2023-01-26T16:54:35.852Z,6.40
2023-01-26T16:57:02.774Z,6.40
2023-01-26T16:59:29.786Z,6.30
2023-01-26T17:01:57.117Z,6.30
2023-01-26T17:04:24.136Z,6.40
2023-01-26T17:06:50.989Z,6.40
2023-01-26T17:09:17.906Z,6.30
2023-01-26T17:11:44.987Z,6.40
2023-01-26T17:14:12.771Z,6.40
2023-01-26T17:16:39.787Z,6.30
2023-01-26T17:19:09.095Z,6.30
2023-01-26T17:21:36.557Z,6.40
2023-01-26T17:24:03.786Z,6.30
2023-01-26T17:26:30.884Z,6.30
2023-01-26T17:28:57.745Z,6.30
2023-01-26T17:31:25.689Z,6.30
2023-01-26T17:33:54.728Z,6.30
2023-01-26T17:36:21.751Z,6.30
2023-01-26T17:38:49.328Z,6.20
2023-01-26T17:41:17.314Z,6.20
2023-01-26T17:43:44.523Z,6.20
2023-01-26T17:46:19.632Z,6.20
2023-01-26T17:48:49.559Z,6.20
2023-01-26T17:51:19.221Z,6.20
2023-01-26T17:53:48.030Z,6.20
2023-01-26T17:56:17.679Z,6.20
2023-01-26T17:58:48.505Z,6.20
2023-01-26T18:01:15.388Z,6.20
2023-01-26T18:03:43.288Z,6.20
2023-01-26T18:06:11.225Z,6.20
2023-01-26T18:08:38.820Z,6.10
2023-01-26T18:11:09.045Z,6.10
2023-01-26T18:13:36.492Z,6.20
2023-01-26T18:16:05.687Z,6.10
2023-01-26T18:18:32.556Z,6.10
2023-01-26T18:21:14.701Z,6.10
2023-01-26T18:23:47.800Z,6.10
2023-01-26T18:26:15.812Z,6.10
2023-01-26T18:28:44.006Z,6.20
2023-01-26T18:31:17.063Z,6.10
2023-01-26T18:33:44.374Z,6.00
2023-01-26T18:36:13.394Z,6.10
2023-01-26T18:38:41.519Z,6.10
2023-01-26T18:41:13.286Z,6.10
2023-01-26T18:43:41.171Z,6.10
2023-01-26T18:46:08.680Z,6.00
2023-01-26T18:48:35.716Z,6.00
2023-01-26T18:51:03.897Z,6.00
2023-01-26T18:53:31.278Z,6.10
2023-01-26T18:56:08.979Z,6.10
2023-01-26T18:58:37.875Z,6.00
2023-01-26T19:01:09.612Z,6.00
2023-01-26T19:03:37.307Z,6.00
2023-01-26T19:06:05.692Z,6.00
2023-01-26T19:08:34.440Z,6.00
2023-01-26T19:11:07.353Z,6.00
2023-01-26T19:13:34.885Z,5.90
2023-01-26T19:16:02.465Z,5.90
2023-01-26T19:18:29.489Z,5.90
2023-01-26T19:21:04.340Z,5.90
2023-01-26T19:23:31.555Z,5.90
2023-01-26T19:25:58.528Z,5.90
2023-01-26T19:28:25.640Z,5.90
2023-01-26T19:30:52.654Z,5.80
2023-01-26T19:33:25.435Z,5.80
2023-01-26T19:35:52.792Z,5.80
2023-01-26T19:38:20.386Z,5.80
2023-01-26T19:40:49.049Z,5.70
2023-01-26T19:43:19.035Z,5.70
2023-01-26T19:45:52.917Z,5.70
2023-01-26T19:48:24.978Z,5.70
2023-01-26T19:51:04.040Z,5.70
2023-01-26T19:53:32.894Z,5.60
2023-01-26T19:56:04.261Z,5.70
2023-01-26T19:58:31.079Z,5.60
2023-01-26T20:01:02.896Z,5.60
2023-01-26T20:03:30.222Z,5.60
2023-01-26T20:05:57.505Z,5.60
2023-01-26T20:08:26.276Z,5.60
2023-01-26T20:10:53.321Z,5.60
2023-01-26T20:13:20.967Z,5.60
2023-01-26T20:15:48.482Z,5.60
2023-01-26T20:18:15.329Z,5.60
2023-01-26T20:20:42.214Z,5.60
2023-01-26T20:23:09.170Z,5.60
2023-01-26T20:25:37.222Z,5.60
2023-01-26T20:28:04.582Z,5.60
2023-01-26T20:30:31.509Z,5.60
2023-01-26T20:32:58.536Z,5.70
2023-01-26T20:35:25.888Z,5.70
2023-01-26T20:37:52.705Z,5.70
2023-01-26T20:40:19.759Z,5.70
2023-01-26T20:42:46.784Z,5.70
2023-01-26T20:45:14.774Z,5.70
2023-01-26T20:47:41.930Z,5.70
2023-01-26T20:50:10.529Z,5.70
2023-01-26T20:52:37.726Z,5.60
2023-01-26T20:55:07.205Z,5.60
2023-01-26T20:57:34.659Z,5.60
2023-01-26T21:00:01.582Z,5.60
2023-01-26T21:02:28.491Z,5.60
2023-01-26T21:04:55.407Z,5.60
2023-01-26T21:07:22.384Z,5.50
2023-01-26T21:09:49.287Z,5.50
2023-01-26T21:12:16.252Z,5.50
2023-01-26T21:14:45.380Z,5.60
2023-01-26T21:17:12.321Z,5.60
2023-01-26T21:19:39.279Z,5.60
2023-01-26T21:22:06.153Z,5.60
2023-01-26T21:24:35.351Z,5.50
2023-01-26T21:27:02.766Z,5.50
2023-01-26T21:29:29.543Z,5.50
2023-01-26T21:31:56.473Z,5.40
2023-01-26T21:34:23.328Z,5.50
2023-01-26T21:36:50.184Z,5.50
2023-01-26T21:39:17.348Z,5.50
2023-01-26T21:41:56.297Z,5.70
2023-01-26T21:44:24.234Z,5.70
2023-01-26T21:46:56.755Z,5.80
2023-01-26T21:49:24.487Z,5.70
2023-01-26T21:52:10.938Z,5.70
2023-01-26T21:54:38.009Z,5.60
2023-01-26T21:57:26.379Z,5.60
2023-01-26T21:59:53.291Z,5.60
2023-01-26T22:02:20.331Z,5.50
2023-01-26T22:04:47.638Z,5.60
2023-01-26T22:07:14.561Z,5.50
2023-01-26T22:09:41.515Z,5.60
2023-01-26T22:12:08.392Z,5.60
2023-01-26T22:14:35.224Z,5.50
2023-01-26T22:17:02.080Z,5.50
2023-01-26T22:19:28.971Z,5.50
2023-01-26T22:21:55.849Z,5.50
2023-01-26T22:24:22.909Z,5.50
2023-01-26T22:26:49.888Z,5.50
2023-01-26T22:29:16.803Z,5.50
2023-01-26T22:31:43.753Z,5.50
2023-01-26T22:34:11.842Z,5.40
2023-01-26T22:36:39.863Z,5.40
2023-01-26T22:39:06.974Z,5.50
2023-01-26T22:41:35.903Z,5.40
2023-01-26T22:44:02.759Z,5.40
2023-01-26T22:46:31.384Z,5.50
2023-01-26T22:48:59.460Z,5.40
2023-01-26T22:51:29.001Z,5.50
2023-01-26T22:53:56.188Z,5.50
2023-01-26T22:56:23.503Z,5.40
2023-01-26T22:59:00.479Z,5.50
2023-01-26T23:01:30.078Z,5.50
2023-01-26T23:03:57.165Z,5.50
2023-01-26T23:06:24.700Z,5.60
2023-01-26T23:08:51.582Z,5.60
2023-01-26T23:11:24.458Z,5.70
2023-01-26T23:13:52.509Z,5.60
2023-01-26T23:16:21.286Z,5.60
2023-01-26T23:18:48.156Z,5.60
2023-01-26T23:21:14.994Z,5.60
2023-01-26T23:23:41.948Z,5.50
2023-01-26T23:26:09.988Z,5.50
2023-01-26T23:28:39.815Z,5.50
2023-01-26T23:31:07.320Z,5.50
2023-01-26T23:33:35.712Z,5.40
2023-01-26T23:36:03.120Z,5.50
2023-01-26T23:38:30.939Z,5.40
2023-01-26T23:41:00.397Z,5.40
2023-01-26T23:43:28.041Z,5.40
2023-01-26T23:45:56.637Z,5.40
2023-01-26T23:48:24.818Z,5.50
2023-01-26T23:50:58.769Z,5.50
2023-01-26T23:53:26.372Z,5.40
2023-01-26T23:55:53.385Z,5.40
2023-01-26T23:58:20.640Z,5.40
